Lake Shore, Minnesota
Current Conditions -  °F | °C
As of 9:53 PM on Thursday 18 Dec 2014 (Local Time) from KBRD Reporting Station
Overcast Overcast  
Wind Chill: 10°   Ceiling: 1300
Heat Index: 18°   Visibility: 9mi
Dew Point: 14°   Wind: 6mph
Humidity: 84%   Direction: 160°SSE
Pressure: 30.23"   Gusts: NA
Location:  46.5121°N, 94.2802°W
Report Text: KBRD 190353Z AUTO 16005KT 9SM OVC013 M08/M10 A3023 RMK AO2 SLP261 T10781100
Loading
Personal Weather Stations






























Interactive Weather Map New forecast layout! Learn more

10-Day Weather Forecast

Advertisements
Track Severe Weather on mobile